Terminal Aerodrome Forecast
Issued by NWS

Home | Current Version | Previous Version | Text Only | Print | Product List | Glossary On
Versions: 1 2 3 4 5 6 7 8 9 10 11 12 13 14 15 16 17 18 19 20 21 22
000
FTUS41 KGYX 022341
TAFHIE
TAF
KHIE 022341Z 0300/0324 23005KT P6SM SCT100
     FM030200 VRB03KT 5SM -SHRA BR BKN025
      TEMPO 0302/0304 3SM TSRA BR BKN015CB
     FM030600 VRB03KT 1/4SM FG VV001
     FM031300 29007KT P6SM SCT040=

USA.gov is the U.S. government's official web portal to all federal, state and local government web resources and services.